createdAt,value
2018-10-06T00:02:12.937Z,11.60
2018-10-06T00:04:41.704Z,11.56
2018-10-06T00:07:10.495Z,11.53
2018-10-06T00:09:39.273Z,11.55
2018-10-06T00:12:08.113Z,11.52
2018-10-06T00:14:36.811Z,11.50
2018-10-06T00:17:05.541Z,11.49
2018-10-06T00:19:34.237Z,11.46
2018-10-06T00:22:03.071Z,11.48
2018-10-06T00:24:31.705Z,11.47
2018-10-06T00:27:00.513Z,11.35
2018-10-06T00:29:29.197Z,11.37
2018-10-06T00:31:58.188Z,11.37
2018-10-06T00:34:27.004Z,11.41
2018-10-06T00:36:55.748Z,11.36
2018-10-06T00:39:24.482Z,11.33
2018-10-06T00:41:53.207Z,11.34
2018-10-06T00:44:21.868Z,11.26
2018-10-06T00:46:50.649Z,11.32
2018-10-06T00:49:19.312Z,11.29
2018-10-06T00:51:48.080Z,11.30
2018-10-06T00:54:16.930Z,11.24
2018-10-06T00:56:45.718Z,11.18
2018-10-06T00:59:14.396Z,11.11
2018-10-06T01:01:43.084Z,11.09
2018-10-06T01:04:12.076Z,11.09
2018-10-06T01:06:40.836Z,10.98
2018-10-06T01:09:10.766Z,10.98
2018-10-06T01:11:39.710Z,10.93
2018-10-06T01:14:08.448Z,10.95
2018-10-06T01:16:37.128Z,10.92
2018-10-06T01:19:05.845Z,10.92
2018-10-06T01:21:34.497Z,10.91
2018-10-06T01:24:03.157Z,10.94
2018-10-06T01:26:31.835Z,10.88
2018-10-06T01:29:00.509Z,10.77
2018-10-06T01:31:29.131Z,10.71
2018-10-06T01:33:57.881Z,10.83
2018-10-06T01:36:26.519Z,10.72
2018-10-06T01:38:55.324Z,10.73
2018-10-06T01:41:24.071Z,10.72
2018-10-06T01:43:53.815Z,10.66
2018-10-06T01:46:22.504Z,10.62
2018-10-06T01:48:51.252Z,10.57
2018-10-06T01:51:19.989Z,10.55
2018-10-06T01:53:48.720Z,10.45
2018-10-06T01:56:17.404Z,10.38
2018-10-06T01:58:46.135Z,10.27
2018-10-06T02:01:14.890Z,10.29
2018-10-06T02:03:43.644Z,10.30
2018-10-06T02:06:12.398Z,10.31
2018-10-06T02:08:41.066Z,10.24
2018-10-06T02:11:09.805Z,10.26
2018-10-06T02:13:38.452Z,10.26
2018-10-06T02:16:07.148Z,10.26
2018-10-06T02:18:35.845Z,10.15
2018-10-06T02:21:04.528Z,10.12
2018-10-06T02:23:33.249Z,10.04
2018-10-06T02:26:01.954Z,10.13
2018-10-06T02:28:30.663Z,10.06
2018-10-06T02:30:59.444Z,10.08
2018-10-06T02:33:28.197Z,10.06
2018-10-06T02:35:56.885Z,10.03
2018-10-06T02:38:25.603Z,10.01
2018-10-06T02:40:54.378Z,10.04
2018-10-06T02:43:23.060Z,10.05
2018-10-06T02:45:51.896Z,10.01
2018-10-06T02:48:20.596Z,10.03
2018-10-06T02:50:49.249Z,9.98
2018-10-06T02:53:17.949Z,9.87
2018-10-06T02:55:46.596Z,9.79
2018-10-06T02:58:15.292Z,9.78
2018-10-06T03:00:43.992Z,9.70
2018-10-06T03:03:12.733Z,9.71
2018-10-06T03:05:41.457Z,9.61
2018-10-06T03:08:10.177Z,9.57
2018-10-06T03:10:38.922Z,9.52
2018-10-06T03:13:07.601Z,9.56
2018-10-06T03:15:36.252Z,9.60
2018-10-06T03:18:04.921Z,9.65
2018-10-06T03:20:33.592Z,9.70
2018-10-06T03:23:02.348Z,9.69
2018-10-06T03:25:31.265Z,9.65
2018-10-06T03:31:16.149Z,9.70
2018-10-06T03:33:44.868Z,9.64
2018-10-06T03:36:13.645Z,9.59
2018-10-06T03:38:42.407Z,9.49
2018-10-06T03:41:11.108Z,9.46
2018-10-06T03:43:39.903Z,9.40
2018-10-06T03:46:09.545Z,9.37
2018-10-06T03:48:38.197Z,9.46
2018-10-06T03:51:06.916Z,9.46
2018-10-06T03:53:35.637Z,9.37
2018-10-06T03:56:04.332Z,9.31
2018-10-06T03:58:33.040Z,9.28
2018-10-06T04:01:01.729Z,9.27
2018-10-06T04:03:30.867Z,9.26
2018-10-06T04:05:59.563Z,9.15
2018-10-06T04:08:28.257Z,9.08
2018-10-06T04:10:56.931Z,9.13
2018-10-06T04:13:25.771Z,9.03
2018-10-06T04:15:54.580Z,8.94
2018-10-06T04:18:23.258Z,8.95
2018-10-06T04:20:51.968Z,8.95
2018-10-06T04:23:20.798Z,8.91
2018-10-06T04:25:49.540Z,8.95
2018-10-06T04:29:39.942Z,8.86
2018-10-06T04:32:08.652Z,8.88
2018-10-06T04:34:37.448Z,8.84
2018-10-06T04:37:06.249Z,8.88
2018-10-06T04:39:34.905Z,8.93
2018-10-06T04:42:03.563Z,8.89
2018-10-06T04:44:32.215Z,8.93
2018-10-06T04:47:00.893Z,8.85
2018-10-06T04:50:54.719Z,8.95
2018-10-06T04:53:23.356Z,8.95
2018-10-06T04:55:52.026Z,8.99
2018-10-06T04:58:20.720Z,8.95
2018-10-06T05:00:49.449Z,9.01
2018-10-06T05:03:18.264Z,8.97
2018-10-06T05:05:46.960Z,9.02
2018-10-06T05:08:15.563Z,9.01
2018-10-06T05:10:44.422Z,9.05
2018-10-06T05:13:13.197Z,9.04
2018-10-06T05:15:41.868Z,9.05
2018-10-06T05:18:10.602Z,9.06
2018-10-06T05:20:39.345Z,9.08
2018-10-06T05:23:08.065Z,9.14
2018-10-06T05:25:36.800Z,9.16
2018-10-06T05:28:05.529Z,9.21
2018-10-06T05:30:34.216Z,9.25
2018-10-06T05:33:02.956Z,9.30
2018-10-06T05:35:31.661Z,9.33
2018-10-06T05:38:00.313Z,9.44
2018-10-06T05:40:28.946Z,9.55
2018-10-06T05:42:57.636Z,9.55
2018-10-06T07:20:16.813Z,12.74
2018-10-06T07:22:45.484Z,12.64
2018-10-06T08:08:54.907Z,13.44
2018-10-06T08:11:23.603Z,13.67
2018-10-06T08:16:20.372Z,14.06
2018-10-06T08:21:38.828Z,14.45
2018-10-06T08:24:07.567Z,14.60
2018-10-06T08:26:36.224Z,14.81
2018-10-06T08:29:04.961Z,14.93
2018-10-06T08:31:33.611Z,14.95
2018-10-06T08:34:02.440Z,15.03
2018-10-06T08:36:31.170Z,15.09
2018-10-06T08:38:59.923Z,15.16
2018-10-06T08:41:28.752Z,15.31
2018-10-06T08:43:57.428Z,15.26
2018-10-06T08:46:26.190Z,15.19
2018-10-06T08:48:55.494Z,15.17
2018-10-06T08:51:24.205Z,15.34
2018-10-06T08:53:52.859Z,15.60
2018-10-06T08:56:21.729Z,15.72
2018-10-06T08:58:50.384Z,15.66
2018-10-06T09:01:19.092Z,15.68
2018-10-06T09:03:47.785Z,15.88
2018-10-06T09:06:16.399Z,16.03
2018-10-06T09:08:45.124Z,16.22
2018-10-06T09:11:13.818Z,16.39
2018-10-06T09:13:42.620Z,16.47
2018-10-06T09:16:11.355Z,16.45
2018-10-06T09:18:40.020Z,16.66
2018-10-06T09:21:08.689Z,16.76
2018-10-06T09:23:37.435Z,16.94
2018-10-06T09:26:06.249Z,16.98
2018-10-06T09:28:35.009Z,17.13
2018-10-06T09:31:03.739Z,17.38
2018-10-06T09:33:32.525Z,17.43
2018-10-06T09:36:01.209Z,17.53
2018-10-06T09:38:29.923Z,17.75
2018-10-06T09:40:58.628Z,18.13
2018-10-06T09:43:27.493Z,18.56
2018-10-06T09:45:56.245Z,18.88
2018-10-06T09:48:24.930Z,19.55
2018-10-06T09:50:53.698Z,20.00
2018-10-06T09:53:22.544Z,20.21
2018-10-06T09:55:51.230Z,20.48
2018-10-06T09:58:19.904Z,20.65
2018-10-06T10:00:53.715Z,20.84
2018-10-06T10:03:27.582Z,21.05
2018-10-06T10:05:56.590Z,21.07
2018-10-06T10:08:25.271Z,21.32
2018-10-06T10:10:54.065Z,21.79
2018-10-06T10:13:22.739Z,22.19
2018-10-06T10:15:51.551Z,22.40
2018-10-06T10:18:20.553Z,22.50
2018-10-06T10:20:49.139Z,22.35
2018-10-06T10:23:17.851Z,22.61
2018-10-06T10:25:46.498Z,23.01
2018-10-06T10:28:15.325Z,23.28
2018-10-06T10:30:43.925Z,23.30
2018-10-06T10:33:12.588Z,23.51
2018-10-06T10:35:41.321Z,23.63
2018-10-06T10:38:09.983Z,23.64
2018-10-06T10:40:38.745Z,23.20
2018-10-06T10:43:07.621Z,23.97
2018-10-06T10:45:36.368Z,24.18
2018-10-06T10:48:05.035Z,24.30
2018-10-06T10:50:33.864Z,23.96
2018-10-06T10:53:02.724Z,24.21
2018-10-06T10:55:31.509Z,24.31
2018-10-06T10:58:00.207Z,24.47
2018-10-06T11:00:29.003Z,24.67
2018-10-06T11:02:57.681Z,24.91
2018-10-06T11:05:26.417Z,24.96
2018-10-06T11:07:55.074Z,25.18
2018-10-06T11:10:23.765Z,25.60
2018-10-06T11:12:52.938Z,25.53
2018-10-06T11:15:21.644Z,25.08
2018-10-06T11:17:50.372Z,25.10
2018-10-06T11:20:19.003Z,25.48
2018-10-06T11:22:47.681Z,25.47
2018-10-06T11:25:16.348Z,25.46
2018-10-06T11:27:45.017Z,25.64
2018-10-06T11:30:13.785Z,25.77
2018-10-06T11:32:42.475Z,25.87
2018-10-06T11:35:11.193Z,25.96
2018-10-06T11:37:40.051Z,25.42
2018-10-06T11:40:08.649Z,25.36
2018-10-06T11:42:37.304Z,26.03
2018-10-06T11:45:05.999Z,26.22
2018-10-06T11:47:34.716Z,26.17
2018-10-06T11:50:03.490Z,26.23
2018-10-06T11:52:32.336Z,26.08
2018-10-06T11:55:00.988Z,26.68
2018-10-06T11:57:29.652Z,26.36
2018-10-06T11:59:58.700Z,26.92
2018-10-06T12:02:27.371Z,26.67
2018-10-06T12:04:56.040Z,26.73
2018-10-06T12:07:24.748Z,26.54
2018-10-06T12:09:53.796Z,26.94
2018-10-06T12:12:22.468Z,27.24
2018-10-06T12:14:51.123Z,27.00
2018-10-06T12:17:19.804Z,27.38
2018-10-06T12:19:48.460Z,26.69
2018-10-06T12:22:17.138Z,26.70
2018-10-06T12:24:45.836Z,27.07
2018-10-06T12:27:14.543Z,27.67
2018-10-06T12:29:43.202Z,27.71
2018-10-06T12:32:11.898Z,27.53
2018-10-06T12:34:40.703Z,27.32
2018-10-06T12:37:09.338Z,27.94
2018-10-06T12:39:38.046Z,27.53
2018-10-06T12:42:06.743Z,27.95
2018-10-06T12:44:35.474Z,28.27
2018-10-06T12:47:04.214Z,27.94
2018-10-06T12:49:32.984Z,28.35
2018-10-06T12:52:01.645Z,28.47
2018-10-06T12:54:30.308Z,28.63
2018-10-06T12:56:59.004Z,28.52
2018-10-06T12:59:27.733Z,28.86
2018-10-06T13:01:56.382Z,28.83
2018-10-06T13:04:25.116Z,28.54
2018-10-06T13:06:53.796Z,28.46
2018-10-06T13:09:22.508Z,28.87
2018-10-06T13:11:51.266Z,28.47
2018-10-06T13:14:19.913Z,28.77
2018-10-06T13:16:48.576Z,28.78
2018-10-06T13:19:17.224Z,28.56
2018-10-06T13:21:45.871Z,28.62
2018-10-06T13:24:14.577Z,28.58
2018-10-06T13:26:43.247Z,28.39
2018-10-06T13:29:11.924Z,28.67
2018-10-06T13:31:40.571Z,28.48
2018-10-06T13:34:09.268Z,28.68
2018-10-06T13:36:37.968Z,28.68
2018-10-06T13:39:08.259Z,28.54
2018-10-06T13:41:36.995Z,28.86
2018-10-06T13:44:05.715Z,28.72
2018-10-06T13:46:34.436Z,28.71
2018-10-06T13:49:03.124Z,28.11
2018-10-06T13:51:31.849Z,28.05
2018-10-06T13:54:00.945Z,28.21
2018-10-06T13:56:29.745Z,28.34
2018-10-06T13:58:58.445Z,27.87
2018-10-06T14:01:27.157Z,28.16
2018-10-06T14:03:55.925Z,28.33
2018-10-06T14:06:24.784Z,28.02
2018-10-06T14:08:53.465Z,27.80
2018-10-06T14:11:22.120Z,27.64
2018-10-06T14:13:50.790Z,27.54
2018-10-06T14:16:19.544Z,27.65
2018-10-06T14:18:48.200Z,27.67
2018-10-06T14:21:16.925Z,27.31
2018-10-06T14:23:45.581Z,27.56
2018-10-06T14:26:14.371Z,27.28
2018-10-06T14:28:43.020Z,27.23
2018-10-06T14:31:11.726Z,27.11
2018-10-06T14:33:40.484Z,26.97
2018-10-06T14:36:09.206Z,26.63
2018-10-06T14:38:37.911Z,26.90
2018-10-06T14:41:06.795Z,26.89
2018-10-06T14:43:35.465Z,26.96
2018-10-06T14:46:04.248Z,26.79
2018-10-06T14:48:32.888Z,26.86
2018-10-06T14:51:01.526Z,26.64
2018-10-06T14:53:30.208Z,26.21
2018-10-06T14:55:59.000Z,26.10
2018-10-06T14:58:27.856Z,25.74
2018-10-06T15:00:56.596Z,25.75
2018-10-06T15:03:25.388Z,26.00
2018-10-06T15:05:54.242Z,25.85
2018-10-06T15:08:24.464Z,25.89
2018-10-06T15:10:53.136Z,25.54
2018-10-06T15:13:21.925Z,25.88
2018-10-06T15:15:50.660Z,25.29
2018-10-06T15:18:19.395Z,25.01
2018-10-06T15:20:48.105Z,25.00
2018-10-06T15:23:16.860Z,24.64
2018-10-06T15:25:45.584Z,24.43
2018-10-06T15:28:14.412Z,24.32
2018-10-06T15:30:43.075Z,23.95
2018-10-06T15:33:11.708Z,23.69
2018-10-06T15:35:40.410Z,23.56
2018-10-06T15:38:09.115Z,23.33
2018-10-06T15:40:37.787Z,22.66
2018-10-06T15:43:06.505Z,22.18
2018-10-06T15:45:35.225Z,21.55
2018-10-06T15:48:03.912Z,21.30
2018-10-06T15:50:32.622Z,20.93
2018-10-06T15:53:01.341Z,20.42
2018-10-06T15:55:30.074Z,20.18
2018-10-06T15:57:58.737Z,19.98
2018-10-06T16:00:27.413Z,19.79
2018-10-06T16:02:56.175Z,19.52
2018-10-06T16:05:24.936Z,19.40
2018-10-06T16:07:53.709Z,19.35
2018-10-06T16:10:22.461Z,19.10
2018-10-06T16:12:51.112Z,18.99
2018-10-06T16:15:19.739Z,18.88
2018-10-06T16:17:48.386Z,18.67
2018-10-06T16:20:17.063Z,18.55
2018-10-06T16:22:45.701Z,18.43
2018-10-06T16:25:14.356Z,18.39
2018-10-06T16:27:43.063Z,18.21
2018-10-06T16:30:11.781Z,18.24
2018-10-06T16:32:40.413Z,18.19
2018-10-06T16:35:09.111Z,18.01
2018-10-06T16:37:37.757Z,18.04
2018-10-06T16:40:06.540Z,17.96
2018-10-06T16:42:35.192Z,17.89
2018-10-06T16:45:03.876Z,17.87
2018-10-06T16:47:32.559Z,17.77
2018-10-06T16:50:01.251Z,17.71
2018-10-06T16:52:29.941Z,17.75
2018-10-06T16:54:58.597Z,17.63
2018-10-06T16:57:27.265Z,17.54
2018-10-06T16:59:56.036Z,17.45
2018-10-06T17:02:24.711Z,17.40
2018-10-06T17:04:54.081Z,17.36
2018-10-06T17:07:22.723Z,17.32
2018-10-06T17:09:51.419Z,17.22
2018-10-06T17:12:20.153Z,17.13
2018-10-06T17:14:48.902Z,17.01
2018-10-06T17:17:17.537Z,16.95
2018-10-06T17:19:46.629Z,16.91
2018-10-06T17:22:15.417Z,16.86
2018-10-06T17:24:44.157Z,16.83
2018-10-06T17:27:13.195Z,16.73
2018-10-06T17:29:41.981Z,16.60
2018-10-06T17:32:10.752Z,16.53
2018-10-06T17:34:39.489Z,16.44
2018-10-06T17:37:08.223Z,16.34
2018-10-06T17:39:37.323Z,16.34
2018-10-06T17:42:06.233Z,16.25
2018-10-06T17:44:35.365Z,16.21
2018-10-06T17:47:04.029Z,16.13
2018-10-06T17:49:32.718Z,16.09
2018-10-06T17:52:01.383Z,16.01
2018-10-06T17:54:30.063Z,16.03
2018-10-06T17:56:58.775Z,16.01
2018-10-06T17:59:27.428Z,15.98
2018-10-06T18:01:56.141Z,15.84
2018-10-06T18:04:24.783Z,15.72
2018-10-06T18:06:53.448Z,15.56
2018-10-06T18:09:22.228Z,15.53
2018-10-06T18:11:50.955Z,15.45
2018-10-06T18:14:19.608Z,15.40
2018-10-06T18:16:48.314Z,15.35
2018-10-06T18:19:16.990Z,15.31
2018-10-06T18:21:45.636Z,15.30
2018-10-06T18:24:14.286Z,15.26
2018-10-06T18:26:42.927Z,15.19
2018-10-06T18:29:11.623Z,15.23
2018-10-06T18:31:40.244Z,15.16
2018-10-06T18:34:09.024Z,15.19
2018-10-06T18:36:37.828Z,15.19
2018-10-06T18:39:07.013Z,15.11
2018-10-06T18:41:35.723Z,15.13
2018-10-06T18:44:04.500Z,15.04
2018-10-06T18:46:33.644Z,14.98
2018-10-06T18:49:02.363Z,14.76
2018-10-06T18:51:31.099Z,14.75
2018-10-06T18:53:59.893Z,14.75
2018-10-06T18:56:28.565Z,14.66
2018-10-06T18:58:57.219Z,14.61
2018-10-06T19:01:25.888Z,14.53
2018-10-06T19:03:54.635Z,14.54
2018-10-06T19:06:23.262Z,14.47
2018-10-06T19:08:51.927Z,14.39
2018-10-06T19:11:20.813Z,14.29
2018-10-06T19:13:49.526Z,14.19
2018-10-06T19:16:18.249Z,14.13
2018-10-06T19:18:46.971Z,14.11
2018-10-06T19:21:15.716Z,14.05
2018-10-06T19:23:44.392Z,13.92
2018-10-06T19:26:13.093Z,13.96
2018-10-06T19:28:41.905Z,13.84
2018-10-06T19:31:10.590Z,13.77
2018-10-06T19:33:39.309Z,13.69
2018-10-06T19:36:08.003Z,13.59
2018-10-06T19:38:36.748Z,13.64
2018-10-06T19:41:05.389Z,13.55
2018-10-06T19:43:34.087Z,13.52
2018-10-06T19:46:02.857Z,13.54
2018-10-06T19:48:31.502Z,13.54
2018-10-06T19:51:00.202Z,13.47
2018-10-06T19:53:28.884Z,13.44
2018-10-06T19:55:57.586Z,13.37
2018-10-06T19:58:26.427Z,13.33
2018-10-06T20:00:55.096Z,13.29
2018-10-06T20:03:23.805Z,13.40
2018-10-06T20:05:52.510Z,13.35
2018-10-06T20:08:21.216Z,13.27
2018-10-06T20:10:49.922Z,13.25
2018-10-06T20:13:18.576Z,13.22
2018-10-06T20:15:47.246Z,13.14
2018-10-06T20:18:15.933Z,13.04
2018-10-06T20:20:44.605Z,13.13
2018-10-06T20:23:13.278Z,13.08
2018-10-06T20:25:42.031Z,13.04
2018-10-06T20:28:10.648Z,12.97
2018-10-06T20:30:39.416Z,12.94
2018-10-06T20:33:08.120Z,12.91
2018-10-06T20:35:36.746Z,12.92
2018-10-06T20:38:06.472Z,12.85
2018-10-06T20:40:35.217Z,12.83
2018-10-06T20:43:04.312Z,12.80
2018-10-06T20:45:33.028Z,12.72
2018-10-06T20:48:01.663Z,12.77
2018-10-06T20:50:30.312Z,12.77
2018-10-06T20:52:58.977Z,12.67
2018-10-06T20:55:27.616Z,12.65
2018-10-06T20:57:56.286Z,12.61
2018-10-06T21:00:25.054Z,12.57
2018-10-06T21:02:53.784Z,12.56
2018-10-06T21:05:22.460Z,12.51
2018-10-06T21:07:51.140Z,12.58
2018-10-06T21:10:19.789Z,12.50
2018-10-06T21:12:48.528Z,12.41
2018-10-06T21:15:17.173Z,12.39
2018-10-06T21:17:45.870Z,12.33
2018-10-06T21:20:14.534Z,12.30
2018-10-06T21:22:43.200Z,12.26
2018-10-06T21:25:11.885Z,12.27
2018-10-06T21:27:40.492Z,12.21
2018-10-06T21:30:09.177Z,12.20
2018-10-06T21:32:37.856Z,12.16
2018-10-06T21:35:06.568Z,12.17
2018-10-06T21:37:35.187Z,12.11
2018-10-06T21:40:03.832Z,12.14
2018-10-06T21:42:32.488Z,12.14
2018-10-06T21:45:01.133Z,12.12
2018-10-06T21:47:29.821Z,12.11
2018-10-06T21:49:58.531Z,12.14
2018-10-06T21:52:27.315Z,12.17
2018-10-06T21:54:55.951Z,12.10
2018-10-06T21:57:24.600Z,12.15
2018-10-06T21:59:53.247Z,12.12
2018-10-06T22:02:21.921Z,12.12
2018-10-06T22:04:50.577Z,12.00
2018-10-06T22:07:19.244Z,11.99
2018-10-06T22:09:47.919Z,12.00
2018-10-06T22:12:16.612Z,11.98
2018-10-06T22:14:45.320Z,11.88
2018-10-06T22:17:13.971Z,11.93
2018-10-06T22:19:42.657Z,11.90
2018-10-06T22:22:11.327Z,11.97
2018-10-06T22:24:40.000Z,11.92
2018-10-06T22:27:08.668Z,11.86
2018-10-06T22:29:37.368Z,11.86
2018-10-06T22:32:06.037Z,11.86
2018-10-06T22:34:34.681Z,11.96
2018-10-06T22:37:03.341Z,11.98
2018-10-06T22:39:32.007Z,11.98
2018-10-06T22:42:00.682Z,11.93
2018-10-06T22:44:29.373Z,11.89
2018-10-06T22:46:58.076Z,11.77
2018-10-06T22:49:26.728Z,11.80
2018-10-06T22:51:55.446Z,11.75
2018-10-06T22:54:24.138Z,11.63
2018-10-06T22:56:52.801Z,11.54
2018-10-06T22:59:21.519Z,11.59
2018-10-06T23:01:50.196Z,11.55
2018-10-06T23:04:19.470Z,11.55
2018-10-06T23:06:48.108Z,11.54
2018-10-06T23:09:16.735Z,11.50
2018-10-06T23:11:45.404Z,11.47
2018-10-06T23:14:14.078Z,11.42
2018-10-06T23:16:42.745Z,11.45
2018-10-06T23:19:11.428Z,11.37
2018-10-06T23:21:40.150Z,11.37
2018-10-06T23:24:08.768Z,11.27
2018-10-06T23:26:37.419Z,11.29
2018-10-06T23:29:06.169Z,11.32
2018-10-06T23:31:34.853Z,11.24
2018-10-06T23:34:03.534Z,11.26
2018-10-06T23:36:32.219Z,11.18
2018-10-06T23:39:01.268Z,11.17
2018-10-06T23:41:30.005Z,11.10
2018-10-06T23:43:58.720Z,11.07
2018-10-06T23:46:27.376Z,11.04
2018-10-06T23:48:56.036Z,11.07
2018-10-06T23:51:24.717Z,11.07
2018-10-06T23:53:53.473Z,11.05
2018-10-06T23:56:22.183Z,11.07
2018-10-06T23:58:51.234Z,11.02
